sensor_id;sensor_type;location;lat;lon;timestamp;P1;durP1;ratioP1;P2;durP2;ratioP2
43793;SDS011;29414;44.798;20.366;2023-02-01T00:02:47;22.15;;;15.90;;
43793;SDS011;29414;44.798;20.366;2023-02-01T00:06:47;25.10;;;17.23;;
43793;SDS011;29414;44.798;20.366;2023-02-01T00:10:47;24.93;;;16.40;;
43793;SDS011;29414;44.798;20.366;2023-02-01T00:14:48;26.23;;;17.55;;
43793;SDS011;29414;44.798;20.366;2023-02-01T00:18:49;22.30;;;16.17;;
43793;SDS011;29414;44.798;20.366;2023-02-01T00:22:50;23.77;;;15.77;;
43793;SDS011;29414;44.798;20.366;2023-02-01T00:26:50;29.13;;;18.25;;
43793;SDS011;29414;44.798;20.366;2023-02-01T00:31:00;23.98;;;16.85;;
43793;SDS011;29414;44.798;20.366;2023-02-01T00:35:01;25.67;;;17.30;;
43793;SDS011;29414;44.798;20.366;2023-02-01T00:39:01;26.70;;;18.63;;
43793;SDS011;29414;44.798;20.366;2023-02-01T00:43:01;29.07;;;20.43;;
43793;SDS011;29414;44.798;20.366;2023-02-01T00:47:02;33.93;;;21.20;;
43793;SDS011;29414;44.798;20.366;2023-02-01T00:51:09;34.88;;;22.58;;
43793;SDS011;29414;44.798;20.366;2023-02-01T00:55:10;30.77;;;20.83;;
43793;SDS011;29414;44.798;20.366;2023-02-01T00:59:10;29.38;;;19.65;;
43793;SDS011;29414;44.798;20.366;2023-02-01T01:03:11;31.97;;;20.20;;
43793;SDS011;29414;44.798;20.366;2023-02-01T01:07:17;27.60;;;20.10;;
43793;SDS011;29414;44.798;20.366;2023-02-01T01:11:18;32.05;;;19.98;;
43793;SDS011;29414;44.798;20.366;2023-02-01T01:15:19;28.20;;;18.07;;
43793;SDS011;29414;44.798;20.366;2023-02-01T01:19:19;33.63;;;22.00;;
43793;SDS011;29414;44.798;20.366;2023-02-01T01:23:19;29.03;;;19.20;;
43793;SDS011;29414;44.798;20.366;2023-02-01T01:27:19;24.33;;;16.52;;
43793;SDS011;29414;44.798;20.366;2023-02-01T01:31:23;26.57;;;15.83;;
43793;SDS011;29414;44.798;20.366;2023-02-01T01:35:24;19.70;;;13.70;;
43793;SDS011;29414;44.798;20.366;2023-02-01T01:39:24;22.30;;;13.93;;
43793;SDS011;29414;44.798;20.366;2023-02-01T01:43:24;20.23;;;14.35;;
43793;SDS011;29414;44.798;20.366;2023-02-01T01:47:25;23.20;;;13.90;;
43793;SDS011;29414;44.798;20.366;2023-02-01T01:51:26;23.10;;;14.60;;
43793;SDS011;29414;44.798;20.366;2023-02-01T01:55:29;20.03;;;12.93;;
43793;SDS011;29414;44.798;20.366;2023-02-01T01:59:31;25.03;;;14.60;;
43793;SDS011;29414;44.798;20.366;2023-02-01T02:03:37;18.67;;;13.47;;
43793;SDS011;29414;44.798;20.366;2023-02-01T02:11:39;19.40;;;12.23;;
43793;SDS011;29414;44.798;20.366;2023-02-01T02:15:41;17.03;;;11.50;;
43793;SDS011;29414;44.798;20.366;2023-02-01T02:33:11;18.13;;;10.70;;
43793;SDS011;29414;44.798;20.366;2023-02-01T02:41:13;16.37;;;11.60;;
43793;SDS011;29414;44.798;20.366;2023-02-01T02:45:42;19.10;;;12.50;;
43793;SDS011;29414;44.798;20.366;2023-02-01T02:50:12;20.27;;;12.60;;
43793;SDS011;29414;44.798;20.366;2023-02-01T02:54:35;17.30;;;11.30;;
43793;SDS011;29414;44.798;20.366;2023-02-01T02:58:50;17.48;;;11.82;;
43793;SDS011;29414;44.798;20.366;2023-02-01T03:03:09;17.37;;;11.40;;
43793;SDS011;29414;44.798;20.366;2023-02-01T03:11:44;19.33;;;12.37;;
43793;SDS011;29414;44.798;20.366;2023-02-01T03:16:34;20.67;;;12.17;;
43793;SDS011;29414;44.798;20.366;2023-02-01T03:20:35;17.70;;;11.30;;
43793;SDS011;29414;44.798;20.366;2023-02-01T03:24:39;19.77;;;11.77;;
43793;SDS011;29414;44.798;20.366;2023-02-01T03:28:41;20.13;;;11.33;;
43793;SDS011;29414;44.798;20.366;2023-02-01T03:32:42;17.67;;;11.37;;
43793;SDS011;29414;44.798;20.366;2023-02-01T03:37:04;16.83;;;10.27;;
43793;SDS011;29414;44.798;20.366;2023-02-01T03:41:15;17.93;;;11.13;;
43793;SDS011;29414;44.798;20.366;2023-02-01T03:45:22;18.43;;;11.83;;
43793;SDS011;29414;44.798;20.366;2023-02-01T03:53:25;20.67;;;12.10;;
43793;SDS011;29414;44.798;20.366;2023-02-01T03:57:27;18.63;;;11.70;;
43793;SDS011;29414;44.798;20.366;2023-02-01T04:01:29;16.50;;;11.60;;
43793;SDS011;29414;44.798;20.366;2023-02-01T04:05:30;15.33;;;10.33;;
43793;SDS011;29414;44.798;20.366;2023-02-01T04:09:30;14.83;;;10.53;;
43793;SDS011;29414;44.798;20.366;2023-02-01T04:13:31;17.37;;;11.40;;
43793;SDS011;29414;44.798;20.366;2023-02-01T04:17:31;16.23;;;11.80;;
43793;SDS011;29414;44.798;20.366;2023-02-01T04:21:31;17.52;;;10.38;;
43793;SDS011;29414;44.798;20.366;2023-02-01T04:25:31;17.08;;;9.82;;
43793;SDS011;29414;44.798;20.366;2023-02-01T04:29:31;17.30;;;9.75;;
43793;SDS011;29414;44.798;20.366;2023-02-01T04:33:32;18.35;;;11.77;;
43793;SDS011;29414;44.798;20.366;2023-02-01T04:37:32;17.57;;;11.27;;
43793;SDS011;29414;44.798;20.366;2023-02-01T04:41:33;17.03;;;12.20;;
43793;SDS011;29414;44.798;20.366;2023-02-01T04:45:33;19.75;;;11.80;;
43793;SDS011;29414;44.798;20.366;2023-02-01T04:49:33;21.52;;;11.68;;
43793;SDS011;29414;44.798;20.366;2023-02-01T04:53:33;16.80;;;10.17;;
43793;SDS011;29414;44.798;20.366;2023-02-01T04:57:34;14.90;;;9.87;;
43793;SDS011;29414;44.798;20.366;2023-02-01T05:01:34;14.98;;;9.07;;
43793;SDS011;29414;44.798;20.366;2023-02-01T05:05:34;14.15;;;9.20;;
43793;SDS011;29414;44.798;20.366;2023-02-01T05:09:34;15.73;;;8.82;;
43793;SDS011;29414;44.798;20.366;2023-02-01T05:13:34;10.65;;;7.60;;
43793;SDS011;29414;44.798;20.366;2023-02-01T05:17:50;15.33;;;9.27;;
43793;SDS011;29414;44.798;20.366;2023-02-01T05:21:50;14.18;;;8.77;;
43793;SDS011;29414;44.798;20.366;2023-02-01T05:25:50;13.93;;;8.77;;
43793;SDS011;29414;44.798;20.366;2023-02-01T05:29:51;13.23;;;8.10;;
43793;SDS011;29414;44.798;20.366;2023-02-01T05:33:51;10.93;;;7.43;;
43793;SDS011;29414;44.798;20.366;2023-02-01T05:37:51;12.40;;;8.03;;
43793;SDS011;29414;44.798;20.366;2023-02-01T05:41:51;12.73;;;7.88;;
43793;SDS011;29414;44.798;20.366;2023-02-01T05:45:52;12.93;;;8.48;;
43793;SDS011;29414;44.798;20.366;2023-02-01T05:49:52;13.23;;;8.40;;
43793;SDS011;29414;44.798;20.366;2023-02-01T05:53:52;10.90;;;7.40;;
43793;SDS011;29414;44.798;20.366;2023-02-01T05:57:52;10.95;;;7.80;;
43793;SDS011;29414;44.798;20.366;2023-02-01T06:01:53;13.80;;;9.23;;
43793;SDS011;29414;44.798;20.366;2023-02-01T06:05:53;15.10;;;9.75;;
43793;SDS011;29414;44.798;20.366;2023-02-01T06:09:53;17.70;;;9.85;;
43793;SDS011;29414;44.798;20.366;2023-02-01T06:13:53;17.50;;;10.05;;
43793;SDS011;29414;44.798;20.366;2023-02-01T06:17:55;16.93;;;11.10;;
43793;SDS011;29414;44.798;20.366;2023-02-01T06:21:55;18.73;;;10.05;;
43793;SDS011;29414;44.798;20.366;2023-02-01T06:26:03;19.92;;;11.98;;
43793;SDS011;29414;44.798;20.366;2023-02-01T06:30:04;18.83;;;14.73;;
43793;SDS011;29414;44.798;20.366;2023-02-01T06:34:04;20.63;;;14.03;;
43793;SDS011;29414;44.798;20.366;2023-02-01T06:38:05;22.42;;;15.50;;
43793;SDS011;29414;44.798;20.366;2023-02-01T06:42:05;17.57;;;12.57;;
43793;SDS011;29414;44.798;20.366;2023-02-01T06:46:09;21.23;;;14.13;;
43793;SDS011;29414;44.798;20.366;2023-02-01T06:50:11;36.30;;;22.80;;
43793;SDS011;29414;44.798;20.366;2023-02-01T06:54:11;39.80;;;23.10;;
43793;SDS011;29414;44.798;20.366;2023-02-01T06:58:11;20.98;;;12.90;;
43793;SDS011;29414;44.798;20.366;2023-02-01T07:02:12;19.20;;;12.73;;
43793;SDS011;29414;44.798;20.366;2023-02-01T07:06:12;19.07;;;11.10;;
43793;SDS011;29414;44.798;20.366;2023-02-01T07:10:12;12.63;;;7.55;;
43793;SDS011;29414;44.798;20.366;2023-02-01T07:14:12;12.93;;;7.60;;
43793;SDS011;29414;44.798;20.366;2023-02-01T07:18:16;14.07;;;9.70;;
43793;SDS011;29414;44.798;20.366;2023-02-01T07:22:16;13.40;;;8.80;;
43793;SDS011;29414;44.798;20.366;2023-02-01T07:26:17;11.13;;;7.83;;
43793;SDS011;29414;44.798;20.366;2023-02-01T07:30:17;22.43;;;12.33;;
43793;SDS011;29414;44.798;20.366;2023-02-01T07:34:17;12.83;;;8.27;;
43793;SDS011;29414;44.798;20.366;2023-02-01T07:38:18;16.50;;;11.40;;
43793;SDS011;29414;44.798;20.366;2023-02-01T07:42:19;22.37;;;14.30;;
43793;SDS011;29414;44.798;20.366;2023-02-01T07:46:19;20.38;;;12.85;;
43793;SDS011;29414;44.798;20.366;2023-02-01T07:50:20;22.47;;;15.10;;
43793;SDS011;29414;44.798;20.366;2023-02-01T07:54:20;21.33;;;12.88;;
43793;SDS011;29414;44.798;20.366;2023-02-01T07:58:20;21.30;;;11.93;;
43793;SDS011;29414;44.798;20.366;2023-02-01T08:02:20;23.13;;;13.05;;
43793;SDS011;29414;44.798;20.366;2023-02-01T08:06:21;23.55;;;13.55;;
43793;SDS011;29414;44.798;20.366;2023-02-01T08:10:22;13.97;;;9.60;;
43793;SDS011;29414;44.798;20.366;2023-02-01T08:14:22;14.52;;;10.30;;
43793;SDS011;29414;44.798;20.366;2023-02-01T08:18:22;15.60;;;10.85;;
43793;SDS011;29414;44.798;20.366;2023-02-01T08:22:23;17.27;;;10.68;;
43793;SDS011;29414;44.798;20.366;2023-02-01T08:26:24;22.93;;;14.70;;
43793;SDS011;29414;44.798;20.366;2023-02-01T08:30:25;20.80;;;11.90;;
43793;SDS011;29414;44.798;20.366;2023-02-01T08:34:27;16.40;;;9.80;;
43793;SDS011;29414;44.798;20.366;2023-02-01T08:38:27;20.13;;;10.00;;
43793;SDS011;29414;44.798;20.366;2023-02-01T08:42:27;16.55;;;10.85;;
43793;SDS011;29414;44.798;20.366;2023-02-01T08:46:48;19.90;;;10.00;;
43793;SDS011;29414;44.798;20.366;2023-02-01T08:50:48;16.48;;;9.77;;
43793;SDS011;29414;44.798;20.366;2023-02-01T08:54:48;16.70;;;10.20;;
43793;SDS011;29414;44.798;20.366;2023-02-01T08:58:48;22.73;;;12.75;;
43793;SDS011;29414;44.798;20.366;2023-02-01T09:02:48;15.82;;;9.90;;
43793;SDS011;29414;44.798;20.366;2023-02-01T09:06:49;19.73;;;10.00;;
43793;SDS011;29414;44.798;20.366;2023-02-01T09:10:49;14.77;;;8.80;;
43793;SDS011;29414;44.798;20.366;2023-02-01T09:14:49;17.80;;;9.13;;
43793;SDS011;29414;44.798;20.366;2023-02-01T09:18:49;14.57;;;8.73;;
43793;SDS011;29414;44.798;20.366;2023-02-01T09:22:54;14.63;;;9.40;;
43793;SDS011;29414;44.798;20.366;2023-02-01T09:26:54;18.07;;;9.93;;
43793;SDS011;29414;44.798;20.366;2023-02-01T09:30:58;13.20;;;8.23;;
43793;SDS011;29414;44.798;20.366;2023-02-01T09:34:58;13.93;;;8.47;;
43793;SDS011;29414;44.798;20.366;2023-02-01T09:38:59;13.87;;;8.47;;
43793;SDS011;29414;44.798;20.366;2023-02-01T09:47:00;12.90;;;8.15;;
43793;SDS011;29414;44.798;20.366;2023-02-01T09:51:02;10.37;;;8.37;;
43793;SDS011;29414;44.798;20.366;2023-02-01T09:55:13;10.43;;;8.33;;
43793;SDS011;29414;44.798;20.366;2023-02-01T09:59:36;14.77;;;7.73;;
43793;SDS011;29414;44.798;20.366;2023-02-01T10:03:37;11.87;;;7.53;;
43793;SDS011;29414;44.798;20.366;2023-02-01T10:28:08;17.58;;;11.23;;
43793;SDS011;29414;44.798;20.366;2023-02-01T10:32:17;10.35;;;7.55;;
43793;SDS011;29414;44.798;20.366;2023-02-01T10:36:22;12.77;;;7.82;;
43793;SDS011;29414;44.798;20.366;2023-02-01T10:40:24;11.60;;;7.20;;
43793;SDS011;29414;44.798;20.366;2023-02-01T10:44:26;14.93;;;8.93;;
43793;SDS011;29414;44.798;20.366;2023-02-01T10:48:27;9.63;;;7.13;;
43793;SDS011;29414;44.798;20.366;2023-02-01T10:52:35;10.73;;;7.27;;
43793;SDS011;29414;44.798;20.366;2023-02-01T10:56:37;11.03;;;6.83;;
43793;SDS011;29414;44.798;20.366;2023-02-01T11:00:41;11.47;;;6.77;;
43793;SDS011;29414;44.798;20.366;2023-02-01T11:04:42;13.60;;;7.23;;
43793;SDS011;29414;44.798;20.366;2023-02-01T11:08:47;11.00;;;7.13;;
43793;SDS011;29414;44.798;20.366;2023-02-01T11:12:52;11.40;;;6.80;;
43793;SDS011;29414;44.798;20.366;2023-02-01T11:17:39;16.27;;;8.33;;
43793;SDS011;29414;44.798;20.366;2023-02-01T11:21:13;13.93;;;6.60;;
43793;SDS011;29414;44.798;20.366;2023-02-01T11:25:14;9.33;;;6.60;;
43793;SDS011;29414;44.798;20.366;2023-02-01T11:29:17;11.57;;;6.13;;
43793;SDS011;29414;44.798;20.366;2023-02-01T11:33:20;6.60;;;5.10;;
43793;SDS011;29414;44.798;20.366;2023-02-01T11:37:21;7.10;;;5.50;;
43793;SDS011;29414;44.798;20.366;2023-02-01T11:41:25;9.07;;;5.97;;
43793;SDS011;29414;44.798;20.366;2023-02-01T11:45:32;13.60;;;6.47;;
43793;SDS011;29414;44.798;20.366;2023-02-01T11:49:37;13.60;;;7.03;;
43793;SDS011;29414;44.798;20.366;2023-02-01T12:01:53;6.37;;;4.93;;
43793;SDS011;29414;44.798;20.366;2023-02-01T12:06:04;8.37;;;5.17;;
43793;SDS011;29414;44.798;20.366;2023-02-01T12:10:09;7.83;;;4.13;;
43793;SDS011;29414;44.798;20.366;2023-02-01T12:30:52;6.77;;;5.23;;
43793;SDS011;29414;44.798;20.366;2023-02-01T12:35:21;4.17;;;3.30;;
43793;SDS011;29414;44.798;20.366;2023-02-01T12:39:29;9.83;;;3.73;;
43793;SDS011;29414;44.798;20.366;2023-02-01T12:47:48;4.27;;;3.07;;
43793;SDS011;29414;44.798;20.366;2023-02-01T12:51:50;6.70;;;3.80;;
43793;SDS011;29414;44.798;20.366;2023-02-01T12:55:59;3.50;;;2.80;;
43793;SDS011;29414;44.798;20.366;2023-02-01T13:00:04;5.53;;;3.20;;
43793;SDS011;29414;44.798;20.366;2023-02-01T13:08:09;7.13;;;4.43;;
43793;SDS011;29414;44.798;20.366;2023-02-01T13:12:22;6.57;;;4.20;;
43793;SDS011;29414;44.798;20.366;2023-02-01T13:16:34;4.60;;;3.73;;
43793;SDS011;29414;44.798;20.366;2023-02-01T13:20:39;7.27;;;3.97;;
43793;SDS011;29414;44.798;20.366;2023-02-01T13:24:43;9.93;;;4.03;;
43793;SDS011;29414;44.798;20.366;2023-02-01T13:28:46;8.60;;;2.93;;
43793;SDS011;29414;44.798;20.366;2023-02-01T13:37:05;3.53;;;2.43;;
43793;SDS011;29414;44.798;20.366;2023-02-01T13:45:15;4.10;;;2.97;;
43793;SDS011;29414;44.798;20.366;2023-02-01T13:49:20;4.60;;;3.33;;
43793;SDS011;29414;44.798;20.366;2023-02-01T13:53:27;8.18;;;3.40;;
43793;SDS011;29414;44.798;20.366;2023-02-01T13:57:34;7.25;;;3.92;;
43793;SDS011;29414;44.798;20.366;2023-02-01T14:01:35;9.10;;;3.47;;
43793;SDS011;29414;44.798;20.366;2023-02-01T14:09:39;3.70;;;2.20;;
43793;SDS011;29414;44.798;20.366;2023-02-01T14:13:39;3.20;;;2.60;;
43793;SDS011;29414;44.798;20.366;2023-02-01T14:17:40;3.97;;;2.37;;
43793;SDS011;29414;44.798;20.366;2023-02-01T14:21:46;17.00;;;7.80;;
43793;SDS011;29414;44.798;20.366;2023-02-01T14:25:47;17.45;;;9.30;;
43793;SDS011;29414;44.798;20.366;2023-02-01T14:29:58;15.60;;;9.70;;
43793;SDS011;29414;44.798;20.366;2023-02-01T14:34:02;9.73;;;6.83;;
43793;SDS011;29414;44.798;20.366;2023-02-01T14:38:02;6.40;;;5.10;;
43793;SDS011;29414;44.798;20.366;2023-02-01T14:42:05;5.90;;;4.53;;
43793;SDS011;29414;44.798;20.366;2023-02-01T14:46:05;7.60;;;4.40;;
43793;SDS011;29414;44.798;20.366;2023-02-01T14:54:07;8.13;;;5.53;;
43793;SDS011;29414;44.798;20.366;2023-02-01T15:02:20;25.57;;;10.73;;
43793;SDS011;29414;44.798;20.366;2023-02-01T15:06:32;16.67;;;9.13;;
43793;SDS011;29414;44.798;20.366;2023-02-01T15:10:33;13.17;;;6.40;;
43793;SDS011;29414;44.798;20.366;2023-02-01T15:14:40;13.88;;;7.85;;
43793;SDS011;29414;44.798;20.366;2023-02-01T15:18:42;14.43;;;8.87;;
43793;SDS011;29414;44.798;20.366;2023-02-01T15:22:43;17.73;;;8.70;;
43793;SDS011;29414;44.798;20.366;2023-02-01T15:26:52;15.13;;;10.43;;
43793;SDS011;29414;44.798;20.366;2023-02-01T15:34:52;29.47;;;18.90;;
43793;SDS011;29414;44.798;20.366;2023-02-01T15:39:14;46.97;;;34.75;;
43793;SDS011;29414;44.798;20.366;2023-02-01T15:48:11;19.73;;;13.32;;
43793;SDS011;29414;44.798;20.366;2023-02-01T15:52:21;27.43;;;14.77;;
43793;SDS011;29414;44.798;20.366;2023-02-01T15:56:28;22.73;;;14.93;;
43793;SDS011;29414;44.798;20.366;2023-02-01T16:00:31;16.87;;;12.87;;
43793;SDS011;29414;44.798;20.366;2023-02-01T16:04:45;16.70;;;11.60;;
43793;SDS011;29414;44.798;20.366;2023-02-01T16:08:50;19.70;;;10.77;;
43793;SDS011;29414;44.798;20.366;2023-02-01T16:12:51;13.83;;;8.47;;
43793;SDS011;29414;44.798;20.366;2023-02-01T16:16:55;13.90;;;6.67;;
43793;SDS011;29414;44.798;20.366;2023-02-01T16:20:56;9.80;;;6.33;;
43793;SDS011;29414;44.798;20.366;2023-02-01T16:24:56;10.38;;;5.53;;
43793;SDS011;29414;44.798;20.366;2023-02-01T16:28:57;12.50;;;4.67;;
43793;SDS011;29414;44.798;20.366;2023-02-01T16:32:58;6.80;;;4.90;;
43793;SDS011;29414;44.798;20.366;2023-02-01T16:36:59;9.03;;;5.40;;
43793;SDS011;29414;44.798;20.366;2023-02-01T16:41:00;10.80;;;5.23;;
43793;SDS011;29414;44.798;20.366;2023-02-01T16:45:02;11.17;;;6.07;;
43793;SDS011;29414;44.798;20.366;2023-02-01T16:49:02;15.00;;;7.60;;
43793;SDS011;29414;44.798;20.366;2023-02-01T16:53:03;11.75;;;6.75;;
43793;SDS011;29414;44.798;20.366;2023-02-01T16:57:04;12.47;;;7.20;;
43793;SDS011;29414;44.798;20.366;2023-02-01T17:01:04;14.43;;;8.80;;
43793;SDS011;29414;44.798;20.366;2023-02-01T17:05:05;18.30;;;9.43;;
43793;SDS011;29414;44.798;20.366;2023-02-01T17:09:05;13.30;;;8.33;;
43793;SDS011;29414;44.798;20.366;2023-02-01T17:13:08;15.83;;;9.70;;
43793;SDS011;29414;44.798;20.366;2023-02-01T17:17:08;16.63;;;9.50;;
43793;SDS011;29414;44.798;20.366;2023-02-01T17:21:09;15.77;;;9.37;;
43793;SDS011;29414;44.798;20.366;2023-02-01T17:25:14;13.57;;;8.27;;
43793;SDS011;29414;44.798;20.366;2023-02-01T17:29:14;12.70;;;9.00;;
43793;SDS011;29414;44.798;20.366;2023-02-01T17:33:23;16.20;;;8.80;;
43793;SDS011;29414;44.798;20.366;2023-02-01T17:37:27;15.73;;;8.53;;
43793;SDS011;29414;44.798;20.366;2023-02-01T17:41:28;32.83;;;17.50;;
43793;SDS011;29414;44.798;20.366;2023-02-01T17:49:31;50.67;;;29.67;;
43793;SDS011;29414;44.798;20.366;2023-02-01T17:53:34;51.67;;;29.17;;
43793;SDS011;29414;44.798;20.366;2023-02-01T17:57:34;50.43;;;27.90;;
43793;SDS011;29414;44.798;20.366;2023-02-01T18:01:34;49.78;;;29.38;;
43793;SDS011;29414;44.798;20.366;2023-02-01T18:05:37;58.40;;;38.10;;
43793;SDS011;29414;44.798;20.366;2023-02-01T18:09:38;58.30;;;33.40;;
43793;SDS011;29414;44.798;20.366;2023-02-01T18:13:38;45.88;;;28.35;;
43793;SDS011;29414;44.798;20.366;2023-02-01T18:17:38;25.33;;;14.67;;
43793;SDS011;29414;44.798;20.366;2023-02-01T18:21:42;15.77;;;9.32;;
43793;SDS011;29414;44.798;20.366;2023-02-01T18:25:42;14.63;;;9.20;;
43793;SDS011;29414;44.798;20.366;2023-02-01T18:29:43;11.27;;;8.20;;
43793;SDS011;29414;44.798;20.366;2023-02-01T18:33:43;12.93;;;7.93;;
43793;SDS011;29414;44.798;20.366;2023-02-01T18:37:43;13.57;;;7.65;;
43793;SDS011;29414;44.798;20.366;2023-02-01T18:41:44;9.50;;;6.47;;
43793;SDS011;29414;44.798;20.366;2023-02-01T18:45:45;8.17;;;6.47;;
43793;SDS011;29414;44.798;20.366;2023-02-01T18:49:49;10.77;;;7.93;;
43793;SDS011;29414;44.798;20.366;2023-02-01T18:53:49;10.40;;;7.60;;
43793;SDS011;29414;44.798;20.366;2023-02-01T18:57:50;11.20;;;7.10;;
43793;SDS011;29414;44.798;20.366;2023-02-01T19:01:50;11.53;;;6.93;;
43793;SDS011;29414;44.798;20.366;2023-02-01T19:05:53;10.32;;;7.05;;
43793;SDS011;29414;44.798;20.366;2023-02-01T19:09:53;8.17;;;6.97;;
43793;SDS011;29414;44.798;20.366;2023-02-01T19:13:53;12.27;;;6.75;;
43793;SDS011;29414;44.798;20.366;2023-02-01T19:17:54;8.57;;;6.17;;
43793;SDS011;29414;44.798;20.366;2023-02-01T19:21:54;9.83;;;6.20;;
43793;SDS011;29414;44.798;20.366;2023-02-01T19:25:54;9.70;;;6.15;;
43793;SDS011;29414;44.798;20.366;2023-02-01T19:29:55;7.60;;;5.22;;
43793;SDS011;29414;44.798;20.366;2023-02-01T19:33:55;10.03;;;4.87;;
43793;SDS011;29414;44.798;20.366;2023-02-01T19:37:55;5.75;;;4.20;;
43793;SDS011;29414;44.798;20.366;2023-02-01T19:41:55;7.30;;;4.13;;
43793;SDS011;29414;44.798;20.366;2023-02-01T19:45:58;6.23;;;4.30;;
43793;SDS011;29414;44.798;20.366;2023-02-01T19:49:58;6.10;;;3.60;;
43793;SDS011;29414;44.798;20.366;2023-02-01T19:53:59;6.93;;;4.37;;
43793;SDS011;29414;44.798;20.366;2023-02-01T19:57:59;8.52;;;4.47;;
43793;SDS011;29414;44.798;20.366;2023-02-01T20:02:01;6.13;;;3.70;;
43793;SDS011;29414;44.798;20.366;2023-02-01T20:06:01;6.80;;;4.55;;
43793;SDS011;29414;44.798;20.366;2023-02-01T20:10:01;5.03;;;3.50;;
43793;SDS011;29414;44.798;20.366;2023-02-01T20:14:02;4.53;;;3.78;;
43793;SDS011;29414;44.798;20.366;2023-02-01T20:18:02;6.67;;;3.63;;
43793;SDS011;29414;44.798;20.366;2023-02-01T20:22:02;11.30;;;8.60;;
43793;SDS011;29414;44.798;20.366;2023-02-01T20:26:03;7.43;;;6.13;;
43793;SDS011;29414;44.798;20.366;2023-02-01T20:30:04;13.27;;;7.20;;
43793;SDS011;29414;44.798;20.366;2023-02-01T20:34:05;12.23;;;9.17;;
43793;SDS011;29414;44.798;20.366;2023-02-01T20:38:05;16.30;;;12.17;;
43793;SDS011;29414;44.798;20.366;2023-02-01T20:42:06;19.47;;;14.53;;
43793;SDS011;29414;44.798;20.366;2023-02-01T20:46:07;19.33;;;14.93;;
43793;SDS011;29414;44.798;20.366;2023-02-01T20:50:08;24.50;;;15.63;;
43793;SDS011;29414;44.798;20.366;2023-02-01T20:54:09;19.57;;;13.07;;
43793;SDS011;29414;44.798;20.366;2023-02-01T20:58:09;15.32;;;10.38;;
43793;SDS011;29414;44.798;20.366;2023-02-01T21:02:09;18.40;;;13.10;;
43793;SDS011;29414;44.798;20.366;2023-02-01T21:06:11;21.25;;;13.00;;
43793;SDS011;29414;44.798;20.366;2023-02-01T21:10:11;20.30;;;12.37;;
43793;SDS011;29414;44.798;20.366;2023-02-01T21:14:11;15.15;;;8.40;;
43793;SDS011;29414;44.798;20.366;2023-02-01T21:18:11;14.32;;;10.50;;
43793;SDS011;29414;44.798;20.366;2023-02-01T21:22:13;15.77;;;11.77;;
43793;SDS011;29414;44.798;20.366;2023-02-01T21:26:15;20.83;;;14.47;;
43793;SDS011;29414;44.798;20.366;2023-02-01T21:30:16;26.13;;;16.57;;
43793;SDS011;29414;44.798;20.366;2023-02-01T21:34:16;24.77;;;17.13;;
43793;SDS011;29414;44.798;20.366;2023-02-01T21:38:16;25.40;;;17.70;;
43793;SDS011;29414;44.798;20.366;2023-02-01T21:42:17;25.80;;;19.63;;
43793;SDS011;29414;44.798;20.366;2023-02-01T21:46:18;32.80;;;21.43;;
43793;SDS011;29414;44.798;20.366;2023-02-01T21:50:18;29.70;;;19.75;;
43793;SDS011;29414;44.798;20.366;2023-02-01T21:54:19;27.57;;;19.87;;
43793;SDS011;29414;44.798;20.366;2023-02-01T21:58:19;29.73;;;20.87;;
43793;SDS011;29414;44.798;20.366;2023-02-01T22:02:19;27.25;;;19.98;;
43793;SDS011;29414;44.798;20.366;2023-02-01T22:06:27;27.47;;;18.57;;
43793;SDS011;29414;44.798;20.366;2023-02-01T22:10:27;33.80;;;21.57;;
43793;SDS011;29414;44.798;20.366;2023-02-01T22:14:28;25.33;;;17.42;;
43793;SDS011;29414;44.798;20.366;2023-02-01T22:18:28;26.13;;;17.97;;
43793;SDS011;29414;44.798;20.366;2023-02-01T22:22:28;23.97;;;17.87;;
43793;SDS011;29414;44.798;20.366;2023-02-01T22:26:29;28.13;;;19.35;;
43793;SDS011;29414;44.798;20.366;2023-02-01T22:30:29;27.58;;;19.58;;
43793;SDS011;29414;44.798;20.366;2023-02-01T22:34:30;30.40;;;20.67;;
43793;SDS011;29414;44.798;20.366;2023-02-01T22:38:30;28.67;;;19.10;;
43793;SDS011;29414;44.798;20.366;2023-02-01T22:42:31;31.13;;;19.30;;
43793;SDS011;29414;44.798;20.366;2023-02-01T22:46:31;32.53;;;21.08;;
43793;SDS011;29414;44.798;20.366;2023-02-01T22:50:32;32.13;;;21.37;;
43793;SDS011;29414;44.798;20.366;2023-02-01T22:54:32;36.53;;;23.42;;
43793;SDS011;29414;44.798;20.366;2023-02-01T22:58:33;36.37;;;24.27;;
43793;SDS011;29414;44.798;20.366;2023-02-01T23:02:36;47.37;;;30.00;;
43793;SDS011;29414;44.798;20.366;2023-02-01T23:06:36;59.03;;;36.93;;
43793;SDS011;29414;44.798;20.366;2023-02-01T23:10:37;68.17;;;41.93;;
43793;SDS011;29414;44.798;20.366;2023-02-01T23:14:37;40.10;;;27.20;;
43793;SDS011;29414;44.798;20.366;2023-02-01T23:18:57;29.67;;;20.47;;
43793;SDS011;29414;44.798;20.366;2023-02-01T23:22:58;31.13;;;20.47;;
43793;SDS011;29414;44.798;20.366;2023-02-01T23:26:58;34.92;;;23.67;;
43793;SDS011;29414;44.798;20.366;2023-02-01T23:30:58;37.80;;;24.85;;
43793;SDS011;29414;44.798;20.366;2023-02-01T23:34:59;34.40;;;22.53;;
43793;SDS011;29414;44.798;20.366;2023-02-01T23:38:59;33.07;;;22.77;;
43793;SDS011;29414;44.798;20.366;2023-02-01T23:42:59;28.05;;;19.25;;
43793;SDS011;29414;44.798;20.366;2023-02-01T23:47:18;24.47;;;17.73;;
43793;SDS011;29414;44.798;20.366;2023-02-01T23:51:18;29.20;;;19.15;;
43793;SDS011;29414;44.798;20.366;2023-02-01T23:55:19;28.47;;;16.33;;
43793;SDS011;29414;44.798;20.366;2023-02-01T23:59:20;19.03;;;14.00;;
